createdAt,value
2022-12-28T00:00:12.796Z,7.25
2022-12-28T00:02:42.287Z,6.35
2022-12-28T00:05:11.128Z,7.00
2022-12-28T00:07:39.407Z,7.15
2022-12-28T00:10:08.269Z,6.63
2022-12-28T00:12:36.638Z,6.50
2022-12-28T00:15:05.449Z,5.85
2022-12-28T00:17:33.597Z,6.22
2022-12-28T00:20:03.252Z,6.05
2022-12-28T00:22:31.380Z,5.45
2022-12-28T00:24:59.583Z,5.57
2022-12-28T00:27:27.865Z,5.28
2022-12-28T00:29:56.149Z,5.20
2022-12-28T00:32:24.337Z,5.07
2022-12-28T00:34:54.762Z,5.68
2022-12-28T00:37:24.397Z,5.07
2022-12-28T00:39:52.757Z,5.28
2022-12-28T00:42:20.888Z,5.10
2022-12-28T00:44:49.211Z,5.07
2022-12-28T00:47:17.905Z,5.15
2022-12-28T00:49:46.101Z,4.65
2022-12-28T00:52:14.264Z,4.40
2022-12-28T00:54:43.838Z,4.38
2022-12-28T00:57:12.146Z,4.88
2022-12-28T00:59:40.247Z,5.05
2022-12-28T01:02:08.572Z,4.53
2022-12-28T01:04:39.098Z,4.43
2022-12-28T01:07:07.377Z,5.10
2022-12-28T01:09:35.554Z,5.18
2022-12-28T01:12:05.351Z,4.80
2022-12-28T01:14:33.668Z,4.32
2022-12-28T01:17:02.606Z,4.30
2022-12-28T01:19:32.411Z,4.50
2022-12-28T01:22:03.587Z,4.63
2022-12-28T01:24:31.746Z,4.40
2022-12-28T01:27:01.579Z,4.70
2022-12-28T01:29:31.161Z,4.60
2022-12-28T01:31:59.488Z,4.75
2022-12-28T01:34:27.737Z,4.47
2022-12-28T01:36:55.953Z,5.10
2022-12-28T01:39:24.182Z,4.97
2022-12-28T01:41:52.379Z,4.47
2022-12-28T01:44:43.784Z,4.40
2022-12-28T01:47:22.189Z,5.20
2022-12-28T01:49:58.238Z,4.65
2022-12-28T01:52:32.203Z,4.60
2022-12-28T01:55:09.623Z,5.15
2022-12-28T01:57:41.599Z,4.53
2022-12-28T02:00:13.366Z,5.07
2022-12-28T02:02:45.916Z,4.93
2022-12-28T02:07:50.806Z,4.20
2022-12-28T02:10:44.457Z,4.15
2022-12-28T02:13:10.578Z,4.90
2022-12-28T02:15:40.155Z,4.88
2022-12-28T02:18:11.128Z,4.85
2022-12-28T02:20:58.439Z,5.82
2022-12-28T02:23:40.005Z,5.53
2022-12-28T02:26:39.650Z,5.38
2022-12-28T02:29:30.373Z,5.18
2022-12-28T02:32:10.038Z,5.10
2022-12-28T02:34:47.572Z,5.22
2022-12-28T02:37:20.853Z,5.75
2022-12-28T02:39:54.890Z,5.45
2022-12-28T02:42:25.436Z,5.55
2022-12-28T02:45:12.421Z,5.93
2022-12-28T02:48:01.822Z,5.43
2022-12-28T02:50:45.620Z,6.03
2022-12-28T02:53:28.950Z,5.78
2022-12-28T02:56:08.803Z,5.25
2022-12-28T02:59:15.958Z,6.30
2022-12-28T03:02:08.707Z,5.47
2022-12-28T03:04:52.493Z,5.97
2022-12-28T03:07:49.704Z,6.20
2022-12-28T03:10:24.429Z,6.20
2022-12-28T03:12:57.906Z,6.60
2022-12-28T03:15:30.710Z,6.18
2022-12-28T03:18:24.693Z,5.80
2022-12-28T03:23:59.427Z,6.45
2022-12-28T03:26:50.921Z,6.28
2022-12-28T03:29:40.241Z,5.50
2022-12-28T03:32:09.325Z,6.82
2022-12-28T03:34:39.937Z,7.43
2022-12-28T03:37:14.400Z,7.28
2022-12-28T03:39:51.779Z,6.97
2022-12-28T03:42:44.734Z,6.45
2022-12-28T03:45:44.248Z,5.85
2022-12-28T03:48:10.936Z,5.63
2022-12-28T03:50:43.356Z,6.32
2022-12-28T03:55:43.199Z,5.38
2022-12-28T03:58:11.784Z,6.35
2022-12-28T04:00:39.982Z,5.53
2022-12-28T04:03:09.124Z,5.10
2022-12-28T04:05:37.313Z,4.95
2022-12-28T04:08:06.874Z,5.03
2022-12-28T04:10:35.462Z,5.13
2022-12-28T04:13:03.732Z,5.57
2022-12-28T04:15:59.969Z,4.60
2022-12-28T04:18:31.153Z,5.03
2022-12-28T04:20:59.739Z,5.15
2022-12-28T04:23:29.680Z,4.93
2022-12-28T04:26:15.947Z,4.45
2022-12-28T04:28:45.963Z,4.78
2022-12-28T04:31:22.338Z,4.65
2022-12-28T04:34:02.673Z,4.47
2022-12-28T04:36:34.405Z,4.55
2022-12-28T04:39:05.411Z,4.60
2022-12-28T04:41:33.624Z,4.45
2022-12-28T04:44:01.790Z,4.95
2022-12-28T04:46:30.167Z,4.55
2022-12-28T04:48:58.301Z,4.47
2022-12-28T04:51:27.696Z,4.22
2022-12-28T04:53:57.143Z,4.10
2022-12-28T04:56:30.073Z,4.10
2022-12-28T04:59:01.598Z,4.10
2022-12-28T05:01:29.903Z,4.15
2022-12-28T05:03:59.877Z,4.00
2022-12-28T05:06:29.419Z,4.22
2022-12-28T05:08:58.346Z,3.80
2022-12-28T05:11:29.743Z,3.30
2022-12-28T05:13:58.398Z,3.33
2022-12-28T05:16:28.323Z,3.70
2022-12-28T05:18:56.710Z,3.20
2022-12-28T05:21:26.712Z,3.80
2022-12-28T05:23:55.557Z,3.50
2022-12-28T05:26:29.848Z,3.60
2022-12-28T05:28:58.870Z,3.15
2022-12-28T05:31:27.664Z,3.78
2022-12-28T05:33:58.245Z,3.10
2022-12-28T05:36:28.103Z,3.15
2022-12-28T05:38:57.726Z,3.85
2022-12-28T05:41:29.522Z,3.13
2022-12-28T05:43:58.985Z,3.13
2022-12-28T05:46:29.133Z,3.40
2022-12-28T05:48:57.776Z,3.63
2022-12-28T05:51:28.089Z,3.40
2022-12-28T05:53:57.277Z,3.28
2022-12-28T05:56:26.863Z,3.65
2022-12-28T05:58:57.831Z,4.15
2022-12-28T06:01:27.625Z,4.03
2022-12-28T06:03:57.851Z,3.35
2022-12-28T06:06:26.885Z,3.58
2022-12-28T06:08:55.433Z,3.28
2022-12-28T06:11:25.393Z,3.10
2022-12-28T06:13:56.345Z,3.30
2022-12-28T06:16:28.695Z,3.15
2022-12-28T06:18:57.226Z,3.13
2022-12-28T06:21:27.858Z,3.30
2022-12-28T06:23:57.740Z,3.65
2022-12-28T06:26:26.713Z,3.95
2022-12-28T06:28:56.274Z,3.13
2022-12-28T06:31:25.798Z,4.78
2022-12-28T06:33:57.107Z,3.97
2022-12-28T06:36:27.673Z,3.70
2022-12-28T06:38:57.319Z,3.67
2022-12-28T06:41:26.758Z,5.35
2022-12-28T06:43:56.512Z,3.20
2022-12-28T06:46:26.469Z,4.60
2022-12-28T06:48:54.833Z,4.47
2022-12-28T06:51:26.714Z,5.22
2022-12-28T06:53:55.868Z,4.43
2022-12-28T06:56:26.263Z,4.85
2022-12-28T06:59:02.454Z,3.60
2022-12-28T07:01:33.554Z,4.40
2022-12-28T07:04:03.236Z,4.45
2022-12-28T07:06:38.092Z,4.28
2022-12-28T07:09:08.448Z,5.50
2022-12-28T07:11:37.525Z,5.25
2022-12-28T07:14:07.335Z,5.10
2022-12-28T07:19:02.694Z,4.45
2022-12-28T07:21:32.343Z,4.40
2022-12-28T07:24:00.849Z,4.60
2022-12-28T07:26:30.747Z,5.20
2022-12-28T07:29:01.157Z,5.63
2022-12-28T07:31:39.747Z,7.78
2022-12-28T07:34:12.380Z,5.00
2022-12-28T07:36:40.516Z,4.50
2022-12-28T07:39:08.997Z,3.88
2022-12-28T07:41:37.233Z,5.45
2022-12-28T07:44:07.886Z,4.60
2022-12-28T07:46:38.555Z,4.47
2022-12-28T07:49:09.038Z,4.45
2022-12-28T07:51:38.875Z,5.10
2022-12-28T07:54:07.308Z,4.35
2022-12-28T07:59:04.540Z,4.70
2022-12-28T08:01:34.821Z,5.07
2022-12-28T08:04:07.035Z,5.78
2022-12-28T08:06:37.276Z,4.88
2022-12-28T08:09:08.972Z,5.80
2022-12-28T08:11:39.263Z,4.80
2022-12-28T08:14:08.680Z,4.63
2022-12-28T08:16:38.238Z,5.15
2022-12-28T08:19:09.326Z,4.38
2022-12-28T08:21:38.940Z,4.82
2022-12-28T08:24:08.570Z,4.43
2022-12-28T08:26:38.295Z,4.78
2022-12-28T08:29:08.151Z,5.03
2022-12-28T08:31:38.653Z,5.13
2022-12-28T08:34:10.482Z,5.18
2022-12-28T08:36:38.683Z,5.47
2022-12-28T08:39:07.398Z,4.55
2022-12-28T08:41:35.486Z,4.55
2022-12-28T08:44:04.085Z,4.93
2022-12-28T08:46:33.615Z,4.55
2022-12-28T08:49:02.299Z,5.03
2022-12-28T08:51:34.320Z,3.97
2022-12-28T08:54:03.860Z,4.90
2022-12-28T08:56:33.647Z,4.00
2022-12-28T08:59:02.608Z,4.30
2022-12-28T09:01:38.815Z,4.32
2022-12-28T09:04:13.659Z,5.22
2022-12-28T09:09:14.845Z,4.63
2022-12-28T09:11:43.679Z,5.03
2022-12-28T09:14:22.233Z,4.25
2022-12-28T09:16:51.531Z,4.75
2022-12-28T09:19:19.826Z,4.60
2022-12-28T09:21:52.459Z,4.72
2022-12-28T09:26:50.893Z,4.38
2022-12-28T09:29:19.078Z,3.90
2022-12-28T09:31:47.406Z,5.60
2022-12-28T09:37:05.599Z,4.60
2022-12-28T09:39:33.868Z,4.25
2022-12-28T09:42:05.384Z,4.78
2022-12-28T09:44:47.942Z,5.63
2022-12-28T09:47:23.309Z,5.18
2022-12-28T09:50:03.679Z,5.43
2022-12-28T09:52:36.109Z,5.32
2022-12-28T09:55:11.878Z,5.18
2022-12-28T09:57:43.493Z,4.75
2022-12-28T10:00:19.333Z,4.85
2022-12-28T10:02:52.008Z,5.03
2022-12-28T10:07:52.304Z,4.05
2022-12-28T10:10:24.438Z,5.15
2022-12-28T10:12:53.912Z,4.90
2022-12-28T10:15:26.547Z,4.35
2022-12-28T10:17:55.033Z,4.25
2022-12-28T10:20:24.208Z,4.38
2022-12-28T10:22:56.799Z,4.53
2022-12-28T10:25:27.661Z,4.55
2022-12-28T10:27:56.722Z,4.15
2022-12-28T10:30:28.526Z,4.50
2022-12-28T10:33:03.026Z,4.25
2022-12-28T10:35:37.429Z,4.53
2022-12-28T10:38:20.309Z,4.60
2022-12-28T10:40:57.889Z,4.65
2022-12-28T10:43:30.289Z,5.10
2022-12-28T10:46:03.039Z,4.20
2022-12-28T10:48:34.130Z,4.35
2022-12-28T10:51:12.376Z,4.65
2022-12-28T10:53:45.505Z,5.78
2022-12-28T10:56:22.951Z,5.30
2022-12-28T10:58:52.587Z,5.13
2022-12-28T11:01:26.267Z,5.63
2022-12-28T11:04:08.739Z,4.45
2022-12-28T11:06:51.743Z,4.20
2022-12-28T11:11:53.395Z,5.47
2022-12-28T11:14:32.983Z,5.70
2022-12-28T11:17:16.447Z,5.05
2022-12-28T11:19:45.008Z,6.65
2022-12-28T11:22:14.653Z,6.65
2022-12-28T11:24:44.373Z,4.97
2022-12-28T11:27:17.224Z,5.07
2022-12-28T11:32:19.862Z,4.57
2022-12-28T11:34:48.744Z,4.47
2022-12-28T11:37:17.251Z,4.72
2022-12-28T11:39:51.330Z,4.50
2022-12-28T11:43:01.426Z,4.35
2022-12-28T11:45:54.281Z,4.53
2022-12-28T11:48:46.342Z,4.38
2022-12-28T11:51:19.612Z,4.40
2022-12-28T11:53:54.430Z,4.30
2022-12-28T11:56:25.647Z,4.43
2022-12-28T11:59:21.738Z,4.55
2022-12-28T12:01:59.456Z,4.28
2022-12-28T12:04:36.883Z,4.20
2022-12-28T12:07:31.747Z,4.57
2022-12-28T12:10:29.767Z,4.07
2022-12-28T12:13:03.972Z,3.67
2022-12-28T12:15:41.253Z,3.90
2022-12-28T12:18:19.335Z,4.15
2022-12-28T12:20:53.448Z,4.55
2022-12-28T12:23:35.367Z,4.35
2022-12-28T12:26:21.795Z,4.68
2022-12-28T12:28:53.879Z,4.03
2022-12-28T12:31:29.601Z,4.25
2022-12-28T12:34:03.715Z,4.10
2022-12-28T12:37:12.642Z,3.95
2022-12-28T12:39:56.377Z,4.20
2022-12-28T12:42:34.683Z,3.95
2022-12-28T12:45:13.492Z,4.22
2022-12-28T12:48:05.825Z,4.43
2022-12-28T12:50:53.512Z,4.20
2022-12-28T12:53:34.991Z,4.10
2022-12-28T12:56:14.803Z,4.00
2022-12-28T12:58:52.314Z,3.78
2022-12-28T13:01:34.449Z,4.10
2022-12-28T13:04:08.742Z,3.58
2022-12-28T13:06:39.548Z,4.85
2022-12-28T13:09:13.528Z,4.00
2022-12-28T13:11:41.877Z,4.35
2022-12-28T13:14:18.980Z,3.95
2022-12-28T13:16:51.359Z,4.93
2022-12-28T13:19:21.469Z,3.55
2022-12-28T13:21:50.508Z,3.33
2022-12-28T13:24:21.081Z,4.25
2022-12-28T13:26:49.543Z,3.58
2022-12-28T13:29:21.567Z,3.38
2022-12-28T13:31:52.388Z,3.67
2022-12-28T13:34:23.890Z,3.22
2022-12-28T13:36:56.472Z,3.80
2022-12-28T13:39:26.053Z,4.20
2022-12-28T13:41:56.115Z,3.90
2022-12-28T13:44:35.784Z,4.03
2022-12-28T13:47:11.139Z,4.00
2022-12-28T13:50:00.168Z,3.65
2022-12-28T13:52:32.169Z,4.28
2022-12-28T13:55:07.189Z,3.27
2022-12-28T13:57:46.825Z,3.97
2022-12-28T14:00:18.786Z,5.53
2022-12-28T14:02:49.383Z,6.50
2022-12-28T14:05:19.671Z,6.65
2022-12-28T14:07:49.236Z,5.25
2022-12-28T14:10:17.896Z,4.75
2022-12-28T14:12:47.565Z,4.60
2022-12-28T14:15:23.134Z,5.55
2022-12-28T14:17:53.810Z,4.00
2022-12-28T14:20:24.733Z,4.88
2022-12-28T14:22:53.229Z,5.55
2022-12-28T14:25:23.426Z,6.25
2022-12-28T14:27:59.181Z,5.07
2022-12-28T14:30:30.122Z,4.40
2022-12-28T14:33:13.128Z,5.75
2022-12-28T14:35:48.684Z,5.38
2022-12-28T14:38:20.278Z,7.15
2022-12-28T14:40:54.362Z,6.40
2022-12-28T14:43:26.026Z,6.63
2022-12-28T14:46:07.459Z,6.88
2022-12-28T14:48:40.812Z,9.80
2022-12-28T14:51:25.781Z,9.70
2022-12-28T14:54:17.397Z,6.90
2022-12-28T14:56:47.476Z,8.30
2022-12-28T14:59:21.391Z,8.55
2022-12-28T15:01:49.787Z,5.20
2022-12-28T15:04:36.022Z,5.50
2022-12-28T15:07:05.174Z,5.60
2022-12-28T15:09:33.336Z,6.10
2022-12-28T15:12:15.795Z,6.35
2022-12-28T15:14:47.226Z,7.20
2022-12-28T15:17:16.272Z,6.30
2022-12-28T15:19:47.056Z,5.95
2022-12-28T15:22:15.477Z,6.70
2022-12-28T15:24:45.672Z,6.32
2022-12-28T15:27:14.011Z,5.10
2022-12-28T15:32:30.609Z,6.30
2022-12-28T15:35:00.408Z,5.70
2022-12-28T15:37:28.519Z,6.05
2022-12-28T15:39:56.731Z,5.90
2022-12-28T15:42:26.970Z,5.97
2022-12-28T15:44:55.078Z,7.15
2022-12-28T15:47:23.926Z,6.95
2022-12-28T15:49:52.046Z,6.70
2022-12-28T15:52:21.671Z,6.20
2022-12-28T15:54:49.856Z,6.75
2022-12-28T15:57:18.024Z,6.10
2022-12-28T15:59:48.814Z,6.25
2022-12-28T16:02:17.663Z,5.65
2022-12-28T16:04:47.202Z,6.65
2022-12-28T16:07:15.499Z,5.70
2022-12-28T16:09:45.027Z,6.18
2022-12-28T16:12:17.149Z,5.97
2022-12-28T16:14:47.138Z,7.32
2022-12-28T16:17:16.048Z,5.60
2022-12-28T16:19:44.253Z,4.72
2022-12-28T16:22:20.667Z,5.32
2022-12-28T16:24:50.162Z,5.25
2022-12-28T16:27:18.436Z,6.40
2022-12-28T16:29:52.717Z,6.30
2022-12-28T16:32:25.721Z,5.82
2022-12-28T16:34:55.346Z,4.75
2022-12-28T16:37:23.732Z,5.30
2022-12-28T16:39:53.540Z,5.47
2022-12-28T16:42:22.379Z,6.82
2022-12-28T16:44:50.863Z,10.20
2022-12-28T16:47:19.060Z,8.32
2022-12-28T16:49:47.194Z,5.82
2022-12-28T16:52:15.348Z,5.80
2022-12-28T16:54:43.461Z,5.53
2022-12-28T16:57:13.046Z,4.70
2022-12-28T16:59:41.341Z,6.00
2022-12-28T17:02:13.484Z,6.13
2022-12-28T17:04:42.056Z,4.22
2022-12-28T17:07:10.468Z,6.10
2022-12-28T17:09:41.970Z,5.43
2022-12-28T17:12:14.885Z,8.48
2022-12-28T17:14:42.999Z,5.57
2022-12-28T17:17:11.079Z,4.90
2022-12-28T17:19:39.659Z,4.10
2022-12-28T17:22:08.056Z,5.30
2022-12-28T17:24:36.805Z,5.82
2022-12-28T17:30:03.821Z,4.95
2022-12-28T17:32:31.976Z,7.05
2022-12-28T17:35:00.194Z,5.63
2022-12-28T17:37:28.377Z,5.20
2022-12-28T17:39:57.203Z,5.15
2022-12-28T17:42:25.589Z,5.30
2022-12-28T17:44:53.738Z,5.18
2022-12-28T17:47:23.536Z,6.22
2022-12-28T17:49:51.675Z,4.80
2022-12-28T17:52:21.731Z,5.18
2022-12-28T17:54:52.884Z,5.07
2022-12-28T17:57:21.091Z,6.88
2022-12-28T17:59:49.245Z,6.20
2022-12-28T18:02:17.600Z,4.82
2022-12-28T18:04:48.027Z,4.25
2022-12-28T18:07:16.225Z,4.07
2022-12-28T18:09:44.424Z,4.35
2022-12-28T18:12:12.619Z,4.28
2022-12-28T18:14:40.798Z,5.85
2022-12-28T18:17:08.990Z,6.95
2022-12-28T18:19:37.332Z,5.10
2022-12-28T18:22:06.937Z,4.63
2022-12-28T18:24:35.191Z,5.00
2022-12-28T18:27:03.514Z,4.43
2022-12-28T18:29:31.589Z,5.20
2022-12-28T18:31:59.782Z,4.90
2022-12-28T18:34:28.034Z,5.40
2022-12-28T18:36:56.159Z,4.80
2022-12-28T18:39:25.665Z,5.20
2022-12-28T18:41:53.804Z,4.35
2022-12-28T18:44:22.005Z,5.10
2022-12-28T18:46:50.175Z,5.57
2022-12-28T18:49:18.405Z,5.20
2022-12-28T18:51:46.518Z,4.43
2022-12-28T18:54:14.645Z,5.50
2022-12-28T18:56:46.863Z,4.85
2022-12-28T18:59:16.016Z,5.57
2022-12-28T19:04:32.691Z,4.25
2022-12-28T19:07:00.982Z,4.47
2022-12-28T19:09:29.199Z,4.90
2022-12-28T19:11:59.189Z,4.90
2022-12-28T19:14:27.538Z,4.82
2022-12-28T19:16:55.813Z,4.35
2022-12-28T19:19:23.981Z,4.70
2022-12-28T19:21:58.511Z,4.20
2022-12-28T19:24:27.144Z,4.05
2022-12-28T19:26:55.344Z,4.22
2022-12-28T19:29:24.976Z,4.20
2022-12-28T19:31:53.178Z,4.10
2022-12-28T19:34:21.515Z,4.53
2022-12-28T19:36:49.778Z,4.80
2022-12-28T19:39:18.132Z,5.47
2022-12-28T19:41:46.238Z,5.35
2022-12-28T19:44:16.719Z,4.70
2022-12-28T19:46:48.251Z,4.97
2022-12-28T19:49:16.803Z,5.00
2022-12-28T19:51:45.029Z,5.30
2022-12-28T19:54:13.361Z,4.63
2022-12-28T19:56:41.541Z,5.38
2022-12-28T19:59:09.746Z,5.10
2022-12-28T20:01:39.265Z,5.53
2022-12-28T20:04:16.073Z,5.70
2022-12-28T20:06:45.300Z,5.95
2022-12-28T20:09:14.381Z,7.70
2022-12-28T20:11:44.867Z,6.85
2022-12-28T20:14:14.585Z,7.55
2022-12-28T20:16:43.648Z,6.90
2022-12-28T20:19:13.890Z,5.65
2022-12-28T20:21:42.585Z,6.20
2022-12-28T20:24:12.897Z,6.90
2022-12-28T20:26:41.208Z,6.68
2022-12-28T20:29:09.476Z,6.55
2022-12-28T20:31:39.900Z,7.95
2022-12-28T20:34:08.275Z,8.10
2022-12-28T20:36:37.919Z,8.00
2022-12-28T20:39:06.143Z,9.30
2022-12-28T20:41:52.385Z,6.63
2022-12-28T20:44:25.369Z,8.15
2022-12-28T20:46:54.381Z,6.72
2022-12-28T20:49:23.438Z,6.45
2022-12-28T20:51:53.503Z,6.25
2022-12-28T20:54:22.497Z,5.57
2022-12-28T20:56:55.844Z,5.55
2022-12-28T20:59:25.949Z,5.22
2022-12-28T21:01:54.793Z,5.68
2022-12-28T21:04:26.085Z,6.05
2022-12-28T21:06:55.777Z,5.20
2022-12-28T21:09:23.995Z,5.90
2022-12-28T21:11:52.300Z,8.52
2022-12-28T21:14:20.870Z,6.32
2022-12-28T21:16:49.592Z,5.53
2022-12-28T21:19:18.160Z,5.75
2022-12-28T21:21:48.255Z,5.50
2022-12-28T21:24:47.297Z,6.38
2022-12-28T21:27:15.416Z,7.18
2022-12-28T21:29:43.529Z,7.07
2022-12-28T21:32:11.711Z,6.80
2022-12-28T21:34:39.811Z,8.57
2022-12-28T21:37:21.773Z,16.55
2022-12-28T21:39:51.341Z,8.80
2022-12-28T21:42:19.490Z,7.70
2022-12-28T21:44:47.628Z,17.83
2022-12-28T21:47:15.708Z,4.88
2022-12-28T21:49:44.050Z,4.45
2022-12-28T21:52:12.249Z,4.88
2022-12-28T21:54:40.580Z,3.83
2022-12-28T21:57:12.162Z,4.10
2022-12-28T21:59:41.086Z,4.40
2022-12-28T22:02:33.087Z,4.43
2022-12-28T22:05:18.862Z,3.50
2022-12-28T22:07:47.358Z,4.78
2022-12-28T22:10:32.962Z,3.67
2022-12-28T22:13:02.557Z,4.25
2022-12-28T22:15:48.317Z,4.15
2022-12-28T22:21:09.602Z,4.53
2022-12-28T22:23:37.702Z,4.25
2022-12-28T22:26:06.291Z,5.00
2022-12-28T22:28:35.975Z,4.07
2022-12-28T22:31:05.941Z,3.80
2022-12-28T22:33:34.389Z,4.15
2022-12-28T22:36:10.589Z,3.13
2022-12-28T22:38:42.029Z,4.03
2022-12-28T22:41:10.892Z,4.07
2022-12-28T22:43:40.546Z,4.20
2022-12-28T22:46:12.860Z,4.20
2022-12-28T22:48:41.034Z,3.75
2022-12-28T22:51:11.377Z,3.75
2022-12-28T22:53:40.264Z,4.60
2022-12-28T22:56:12.028Z,5.47
2022-12-28T22:58:41.527Z,3.90
2022-12-28T23:01:11.728Z,3.70
2022-12-28T23:03:41.135Z,4.47
2022-12-28T23:06:10.919Z,3.53
2022-12-28T23:08:39.136Z,4.40
2022-12-28T23:11:29.657Z,4.15
2022-12-28T23:14:19.829Z,3.97
2022-12-28T23:16:47.253Z,3.85
2022-12-28T23:19:32.762Z,3.45
2022-12-28T23:22:18.742Z,3.65
2022-12-28T23:25:04.556Z,3.40
2022-12-28T23:27:36.074Z,3.13
2022-12-28T23:30:07.731Z,3.40
2022-12-28T23:32:36.039Z,3.10
2022-12-28T23:35:04.642Z,4.47
2022-12-28T23:37:35.197Z,5.25
2022-12-28T23:40:03.325Z,3.90
2022-12-28T23:42:31.492Z,3.33
2022-12-28T23:45:02.341Z,2.95
2022-12-28T23:47:32.008Z,3.50
2022-12-28T23:50:00.174Z,3.03
2022-12-28T23:52:29.016Z,3.00
2022-12-28T23:54:57.240Z,2.90
2022-12-28T23:57:25.666Z,3.00
2022-12-28T23:59:54.017Z,3.00
